sensor_id;sensor_type;location;lat;lon;timestamp;temperature;humidity
28773;DHT22;15925;51.222;5.678;2024-03-23T00:55:29;9.20;99.90
28773;DHT22;15925;51.222;5.678;2024-03-23T00:57:55;9.20;99.90
28773;DHT22;15925;51.222;5.678;2024-03-23T01:00:21;9.20;99.90
28773;DHT22;15925;51.222;5.678;2024-03-23T01:02:46;9.20;99.90
28773;DHT22;15925;51.222;5.678;2024-03-23T01:05:12;9.20;99.90
28773;DHT22;15925;51.222;5.678;2024-03-23T01:07:38;9.20;99.90
28773;DHT22;15925;51.222;5.678;2024-03-23T01:10:04;9.20;99.90
28773;DHT22;15925;51.222;5.678;2024-03-23T01:12:30;9.20;99.90
28773;DHT22;15925;51.222;5.678;2024-03-23T01:14:55;9.20;99.90
28773;DHT22;15925;51.222;5.678;2024-03-23T01:17:21;9.20;99.90
28773;DHT22;15925;51.222;5.678;2024-03-23T01:19:47;9.20;99.90
28773;DHT22;15925;51.222;5.678;2024-03-23T01:22:13;9.20;99.90
28773;DHT22;15925;51.222;5.678;2024-03-23T01:24:39;9.20;99.90
28773;DHT22;15925;51.222;5.678;2024-03-23T01:27:05;9.20;99.90
28773;DHT22;15925;51.222;5.678;2024-03-23T01:29:30;9.20;99.90
28773;DHT22;15925;51.222;5.678;2024-03-23T01:31:56;9.10;99.90
28773;DHT22;15925;51.222;5.678;2024-03-23T01:34:22;9.10;99.90
28773;DHT22;15925;51.222;5.678;2024-03-23T01:36:48;9.10;99.90
28773;DHT22;15925;51.222;5.678;2024-03-23T01:39:14;9.10;99.90
28773;DHT22;15925;51.222;5.678;2024-03-23T01:41:40;9.10;99.90
28773;DHT22;15925;51.222;5.678;2024-03-23T01:44:08;9.10;99.90
28773;DHT22;15925;51.222;5.678;2024-03-23T01:46:37;9.10;99.90
28773;DHT22;15925;51.222;5.678;2024-03-23T01:49:05;9.00;99.90
28773;DHT22;15925;51.222;5.678;2024-03-23T01:51:31;9.00;99.90
28773;DHT22;15925;51.222;5.678;2024-03-23T01:53:57;9.00;99.90
28773;DHT22;15925;51.222;5.678;2024-03-23T01:56:26;9.00;99.90
28773;DHT22;15925;51.222;5.678;2024-03-23T01:58:52;9.00;99.90
28773;DHT22;15925;51.222;5.678;2024-03-23T02:01:18;9.00;99.90
28773;DHT22;15925;51.222;5.678;2024-03-23T02:03:44;9.00;99.90
28773;DHT22;15925;51.222;5.678;2024-03-23T02:06:10;9.00;99.90
28773;DHT22;15925;51.222;5.678;2024-03-23T02:08:36;8.80;99.90
28773;DHT22;15925;51.222;5.678;2024-03-23T02:11:02;8.60;99.90
28773;DHT22;15925;51.222;5.678;2024-03-23T02:13:28;8.60;99.90
28773;DHT22;15925;51.222;5.678;2024-03-23T02:15:54;8.60;99.90
28773;DHT22;15925;51.222;5.678;2024-03-23T02:18:19;8.60;99.90
28773;DHT22;15925;51.222;5.678;2024-03-23T02:20:45;8.40;99.90
28773;DHT22;15925;51.222;5.678;2024-03-23T02:23:15;8.30;99.90
28773;DHT22;15925;51.222;5.678;2024-03-23T02:25:41;8.20;99.90
28773;DHT22;15925;51.222;5.678;2024-03-23T02:28:07;8.00;99.90
28773;DHT22;15925;51.222;5.678;2024-03-23T02:30:33;7.90;99.90
28773;DHT22;15925;51.222;5.678;2024-03-23T02:32:58;7.70;99.90
28773;DHT22;15925;51.222;5.678;2024-03-23T02:35:24;7.60;99.90
28773;DHT22;15925;51.222;5.678;2024-03-23T02:37:50;7.50;99.90
28773;DHT22;15925;51.222;5.678;2024-03-23T02:40:16;7.30;99.90
28773;DHT22;15925;51.222;5.678;2024-03-23T02:42:42;7.20;99.90
28773;DHT22;15925;51.222;5.678;2024-03-23T02:45:08;7.10;99.90
28773;DHT22;15925;51.222;5.678;2024-03-23T02:47:34;7.10;99.90
28773;DHT22;15925;51.222;5.678;2024-03-23T02:50:00;7.00;99.90
28773;DHT22;15925;51.222;5.678;2024-03-23T02:52:26;6.90;99.90
28773;DHT22;15925;51.222;5.678;2024-03-23T02:54:51;6.90;99.90
28773;DHT22;15925;51.222;5.678;2024-03-23T02:57:17;6.80;99.90
28773;DHT22;15925;51.222;5.678;2024-03-23T02:59:43;7.00;99.90
28773;DHT22;15925;51.222;5.678;2024-03-23T03:02:09;7.00;99.90
28773;DHT22;15925;51.222;5.678;2024-03-23T03:04:35;6.90;99.90
28773;DHT22;15925;51.222;5.678;2024-03-23T03:07:00;6.90;99.90
28773;DHT22;15925;51.222;5.678;2024-03-23T03:09:26;6.90;99.90
28773;DHT22;15925;51.222;5.678;2024-03-23T03:11:52;7.00;99.90
28773;DHT22;15925;51.222;5.678;2024-03-23T03:14:18;7.10;99.90
28773;DHT22;15925;51.222;5.678;2024-03-23T03:16:43;7.30;99.90
28773;DHT22;15925;51.222;5.678;2024-03-23T03:19:09;7.30;99.90
28773;DHT22;15925;51.222;5.678;2024-03-23T03:21:36;7.50;99.90
28773;DHT22;15925;51.222;5.678;2024-03-23T03:24:03;7.40;99.90
28773;DHT22;15925;51.222;5.678;2024-03-23T03:26:28;7.40;99.90
28773;DHT22;15925;51.222;5.678;2024-03-23T03:28:54;7.20;99.90
28773;DHT22;15925;51.222;5.678;2024-03-23T03:31:20;7.20;99.90
28773;DHT22;15925;51.222;5.678;2024-03-23T03:33:46;7.20;99.90
28773;DHT22;15925;51.222;5.678;2024-03-23T03:36:12;7.40;99.90
28773;DHT22;15925;51.222;5.678;2024-03-23T03:38:37;7.60;99.90
28773;DHT22;15925;51.222;5.678;2024-03-23T03:41:06;7.30;99.90
28773;DHT22;15925;51.222;5.678;2024-03-23T03:43:32;7.30;99.90
28773;DHT22;15925;51.222;5.678;2024-03-23T03:45:58;7.40;99.90
28773;DHT22;15925;51.222;5.678;2024-03-23T03:48:24;7.50;99.90
28773;DHT22;15925;51.222;5.678;2024-03-23T03:50:49;7.40;99.90
28773;DHT22;15925;51.222;5.678;2024-03-23T03:53:15;7.40;99.90
28773;DHT22;15925;51.222;5.678;2024-03-23T03:55:41;7.40;99.90
28773;DHT22;15925;51.222;5.678;2024-03-23T03:58:07;7.50;99.90
28773;DHT22;15925;51.222;5.678;2024-03-23T04:00:33;7.50;99.90
28773;DHT22;15925;51.222;5.678;2024-03-23T04:02:58;7.40;99.90
28773;DHT22;15925;51.222;5.678;2024-03-23T04:05:24;7.60;99.90
28773;DHT22;15925;51.222;5.678;2024-03-23T04:07:50;7.40;99.90
28773;DHT22;15925;51.222;5.678;2024-03-23T04:10:15;7.20;99.90
28773;DHT22;15925;51.222;5.678;2024-03-23T04:12:43;7.40;99.90
28773;DHT22;15925;51.222;5.678;2024-03-23T04:15:09;7.30;99.90
28773;DHT22;15925;51.222;5.678;2024-03-23T04:17:35;7.40;99.90
28773;DHT22;15925;51.222;5.678;2024-03-23T04:20:01;7.50;99.90
28773;DHT22;15925;51.222;5.678;2024-03-23T04:22:28;7.40;99.90
28773;DHT22;15925;51.222;5.678;2024-03-23T04:24:54;7.40;99.90
28773;DHT22;15925;51.222;5.678;2024-03-23T04:27:19;7.50;99.90
28773;DHT22;15925;51.222;5.678;2024-03-23T04:29:49;7.60;99.90
28773;DHT22;15925;51.222;5.678;2024-03-23T04:32:14;7.60;99.90
28773;DHT22;15925;51.222;5.678;2024-03-23T04:34:40;7.60;99.90
28773;DHT22;15925;51.222;5.678;2024-03-23T04:37:06;7.60;99.90
28773;DHT22;15925;51.222;5.678;2024-03-23T04:39:31;7.20;99.90
28773;DHT22;15925;51.222;5.678;2024-03-23T04:41:57;7.20;99.90
28773;DHT22;15925;51.222;5.678;2024-03-23T04:44:23;6.90;99.90
28773;DHT22;15925;51.222;5.678;2024-03-23T04:46:48;6.80;99.90
28773;DHT22;15925;51.222;5.678;2024-03-23T04:49:14;6.70;99.90
28773;DHT22;15925;51.222;5.678;2024-03-23T04:51:40;6.80;99.90
28773;DHT22;15925;51.222;5.678;2024-03-23T04:54:11;6.70;99.90
28773;DHT22;15925;51.222;5.678;2024-03-23T04:56:37;6.60;99.90
28773;DHT22;15925;51.222;5.678;2024-03-23T04:59:03;6.60;99.90
28773;DHT22;15925;51.222;5.678;2024-03-23T05:01:33;6.70;99.90
28773;DHT22;15925;51.222;5.678;2024-03-23T05:04:02;6.80;99.90
28773;DHT22;15925;51.222;5.678;2024-03-23T05:06:27;6.90;99.90
28773;DHT22;15925;51.222;5.678;2024-03-23T05:08:54;6.80;99.90
28773;DHT22;15925;51.222;5.678;2024-03-23T05:11:19;6.80;99.90
28773;DHT22;15925;51.222;5.678;2024-03-23T05:13:46;6.70;99.90
28773;DHT22;15925;51.222;5.678;2024-03-23T05:16:11;6.60;99.90
28773;DHT22;15925;51.222;5.678;2024-03-23T05:18:37;6.50;99.90
28773;DHT22;15925;51.222;5.678;2024-03-23T05:21:03;6.40;99.90
28773;DHT22;15925;51.222;5.678;2024-03-23T05:23:29;6.50;99.90
28773;DHT22;15925;51.222;5.678;2024-03-23T05:25:55;6.40;99.90
28773;DHT22;15925;51.222;5.678;2024-03-23T05:28:21;6.50;99.90
28773;DHT22;15925;51.222;5.678;2024-03-23T05:30:53;6.60;99.90
28773;DHT22;15925;51.222;5.678;2024-03-23T05:33:19;6.60;99.90
28773;DHT22;15925;51.222;5.678;2024-03-23T05:35:44;6.70;99.90
28773;DHT22;15925;51.222;5.678;2024-03-23T05:38:10;6.70;99.90
28773;DHT22;15925;51.222;5.678;2024-03-23T05:40:36;6.50;99.90
28773;DHT22;15925;51.222;5.678;2024-03-23T05:43:03;6.50;99.90
28773;DHT22;15925;51.222;5.678;2024-03-23T05:45:29;6.60;99.90
28773;DHT22;15925;51.222;5.678;2024-03-23T05:47:54;6.70;99.90
28773;DHT22;15925;51.222;5.678;2024-03-23T05:50:22;6.60;99.90
28773;DHT22;15925;51.222;5.678;2024-03-23T05:52:48;6.70;99.90
28773;DHT22;15925;51.222;5.678;2024-03-23T05:55:17;6.70;99.90
28773;DHT22;15925;51.222;5.678;2024-03-23T05:57:42;6.40;99.90
28773;DHT22;15925;51.222;5.678;2024-03-23T06:00:08;6.40;99.90
28773;DHT22;15925;51.222;5.678;2024-03-23T06:02:44;6.30;99.90
28773;DHT22;15925;51.222;5.678;2024-03-23T06:05:13;6.20;99.90
28773;DHT22;15925;51.222;5.678;2024-03-23T06:07:38;6.20;99.90
28773;DHT22;15925;51.222;5.678;2024-03-23T06:10:04;6.20;99.90
28773;DHT22;15925;51.222;5.678;2024-03-23T06:12:31;6.30;99.90
28773;DHT22;15925;51.222;5.678;2024-03-23T06:14:57;6.50;99.90
28773;DHT22;15925;51.222;5.678;2024-03-23T06:17:22;6.50;99.90
28773;DHT22;15925;51.222;5.678;2024-03-23T06:19:48;6.40;99.90
28773;DHT22;15925;51.222;5.678;2024-03-23T06:22:14;6.40;99.90
28773;DHT22;15925;51.222;5.678;2024-03-23T06:24:40;6.50;99.90
28773;DHT22;15925;51.222;5.678;2024-03-23T06:27:05;6.50;99.90
28773;DHT22;15925;51.222;5.678;2024-03-23T06:29:31;6.50;99.90
28773;DHT22;15925;51.222;5.678;2024-03-23T06:31:57;6.50;99.90
28773;DHT22;15925;51.222;5.678;2024-03-23T06:34:23;6.60;99.90
28773;DHT22;15925;51.222;5.678;2024-03-23T06:36:49;6.60;99.90
28773;DHT22;15925;51.222;5.678;2024-03-23T06:39:15;6.60;99.90
28773;DHT22;15925;51.222;5.678;2024-03-23T06:41:41;6.60;99.90
28773;DHT22;15925;51.222;5.678;2024-03-23T06:44:07;6.60;99.90
28773;DHT22;15925;51.222;5.678;2024-03-23T06:46:33;6.50;99.90
28773;DHT22;15925;51.222;5.678;2024-03-23T06:48:58;6.40;99.90
28773;DHT22;15925;51.222;5.678;2024-03-23T06:51:24;6.40;99.90
28773;DHT22;15925;51.222;5.678;2024-03-23T06:53:49;6.40;99.90
28773;DHT22;15925;51.222;5.678;2024-03-23T06:56:15;6.40;99.90
28773;DHT22;15925;51.222;5.678;2024-03-23T06:58:41;6.40;99.90
28773;DHT22;15925;51.222;5.678;2024-03-23T07:01:06;6.30;99.90
28773;DHT22;15925;51.222;5.678;2024-03-23T07:03:32;6.40;99.90
28773;DHT22;15925;51.222;5.678;2024-03-23T07:05:58;6.40;99.90
28773;DHT22;15925;51.222;5.678;2024-03-23T07:08:24;6.40;99.90
28773;DHT22;15925;51.222;5.678;2024-03-23T07:10:49;6.40;99.90
28773;DHT22;15925;51.222;5.678;2024-03-23T07:13:15;6.50;99.90
28773;DHT22;15925;51.222;5.678;2024-03-23T07:15:42;6.50;99.90
28773;DHT22;15925;51.222;5.678;2024-03-23T07:18:08;6.50;99.90
28773;DHT22;15925;51.222;5.678;2024-03-23T07:20:33;6.50;99.90
28773;DHT22;15925;51.222;5.678;2024-03-23T07:22:59;6.60;99.90
28773;DHT22;15925;51.222;5.678;2024-03-23T07:25:25;6.70;99.90
28773;DHT22;15925;51.222;5.678;2024-03-23T07:27:55;6.70;99.90
28773;DHT22;15925;51.222;5.678;2024-03-23T07:30:20;6.80;99.90
28773;DHT22;15925;51.222;5.678;2024-03-23T07:32:46;6.90;99.90
28773;DHT22;15925;51.222;5.678;2024-03-23T07:35:12;6.90;99.90
28773;DHT22;15925;51.222;5.678;2024-03-23T07:37:38;6.90;99.90
28773;DHT22;15925;51.222;5.678;2024-03-23T07:40:04;6.90;99.90
28773;DHT22;15925;51.222;5.678;2024-03-23T07:42:30;6.90;99.90
28773;DHT22;15925;51.222;5.678;2024-03-23T07:44:56;7.00;99.90
28773;DHT22;15925;51.222;5.678;2024-03-23T07:47:22;7.10;99.90
28773;DHT22;15925;51.222;5.678;2024-03-23T07:49:48;7.10;99.90
28773;DHT22;15925;51.222;5.678;2024-03-23T07:52:14;7.20;99.90
28773;DHT22;15925;51.222;5.678;2024-03-23T07:54:39;7.20;99.90
28773;DHT22;15925;51.222;5.678;2024-03-23T07:57:05;7.30;99.90
28773;DHT22;15925;51.222;5.678;2024-03-23T07:59:32;7.30;99.90
28773;DHT22;15925;51.222;5.678;2024-03-23T08:01:59;7.40;99.90
28773;DHT22;15925;51.222;5.678;2024-03-23T08:04:27;7.40;99.90
28773;DHT22;15925;51.222;5.678;2024-03-23T08:06:53;7.40;99.90
28773;DHT22;15925;51.222;5.678;2024-03-23T08:09:18;7.50;99.90
28773;DHT22;15925;51.222;5.678;2024-03-23T08:11:44;7.60;99.90
28773;DHT22;15925;51.222;5.678;2024-03-23T08:14:11;7.70;99.90
28773;DHT22;15925;51.222;5.678;2024-03-23T08:16:36;7.70;99.90
28773;DHT22;15925;51.222;5.678;2024-03-23T08:19:02;7.70;99.90
28773;DHT22;15925;51.222;5.678;2024-03-23T08:21:29;7.80;99.90
28773;DHT22;15925;51.222;5.678;2024-03-23T08:23:55;7.90;99.90
28773;DHT22;15925;51.222;5.678;2024-03-23T08:26:20;8.00;99.90
28773;DHT22;15925;51.222;5.678;2024-03-23T08:28:46;8.00;99.90
28773;DHT22;15925;51.222;5.678;2024-03-23T08:31:13;8.00;99.90
28773;DHT22;15925;51.222;5.678;2024-03-23T08:33:40;8.10;99.90
28773;DHT22;15925;51.222;5.678;2024-03-23T08:36:08;8.20;99.90
28773;DHT22;15925;51.222;5.678;2024-03-23T08:38:34;8.20;99.90
28773;DHT22;15925;51.222;5.678;2024-03-23T08:41:00;8.30;99.90
28773;DHT22;15925;51.222;5.678;2024-03-23T08:43:28;8.30;99.90
28773;DHT22;15925;51.222;5.678;2024-03-23T08:46:03;8.30;99.90
28773;DHT22;15925;51.222;5.678;2024-03-23T08:48:28;8.40;99.90
28773;DHT22;15925;51.222;5.678;2024-03-23T08:53:27;8.50;99.90
28773;DHT22;15925;51.222;5.678;2024-03-23T08:55:53;8.60;99.90
28773;DHT22;15925;51.222;5.678;2024-03-23T08:58:18;8.60;99.90
28773;DHT22;15925;51.222;5.678;2024-03-23T09:00:45;8.60;99.90
28773;DHT22;15925;51.222;5.678;2024-03-23T09:03:12;8.60;99.90
28773;DHT22;15925;51.222;5.678;2024-03-23T09:05:41;8.40;99.90
28773;DHT22;15925;51.222;5.678;2024-03-23T09:08:06;8.40;99.90
28773;DHT22;15925;51.222;5.678;2024-03-23T09:10:35;8.40;99.90
28773;DHT22;15925;51.222;5.678;2024-03-23T09:13:02;8.30;99.90
28773;DHT22;15925;51.222;5.678;2024-03-23T09:15:27;8.40;99.90
28773;DHT22;15925;51.222;5.678;2024-03-23T09:17:54;8.50;99.90
28773;DHT22;15925;51.222;5.678;2024-03-23T09:20:19;8.60;99.90
28773;DHT22;15925;51.222;5.678;2024-03-23T09:22:45;8.80;99.90
28773;DHT22;15925;51.222;5.678;2024-03-23T09:25:13;9.00;99.90
28773;DHT22;15925;51.222;5.678;2024-03-23T09:27:39;9.00;99.90
28773;DHT22;15925;51.222;5.678;2024-03-23T09:30:04;9.10;99.90
28773;DHT22;15925;51.222;5.678;2024-03-23T09:32:30;9.00;99.90
28773;DHT22;15925;51.222;5.678;2024-03-23T09:34:56;9.00;99.90
28773;DHT22;15925;51.222;5.678;2024-03-23T09:37:21;8.90;99.90
28773;DHT22;15925;51.222;5.678;2024-03-23T09:39:47;8.90;99.90
28773;DHT22;15925;51.222;5.678;2024-03-23T09:42:13;8.70;99.90
28773;DHT22;15925;51.222;5.678;2024-03-23T09:44:40;8.60;99.90
28773;DHT22;15925;51.222;5.678;2024-03-23T09:47:06;8.50;99.90
28773;DHT22;15925;51.222;5.678;2024-03-23T09:49:32;8.30;99.90
28773;DHT22;15925;51.222;5.678;2024-03-23T09:52:02;8.10;99.90
28773;DHT22;15925;51.222;5.678;2024-03-23T09:54:28;7.90;99.90
28773;DHT22;15925;51.222;5.678;2024-03-23T09:56:54;7.90;99.90
28773;DHT22;15925;51.222;5.678;2024-03-23T09:59:19;7.80;99.90
28773;DHT22;15925;51.222;5.678;2024-03-23T10:01:45;7.80;99.90
28773;DHT22;15925;51.222;5.678;2024-03-23T10:04:10;8.00;99.90
28773;DHT22;15925;51.222;5.678;2024-03-23T10:06:37;8.20;99.90
28773;DHT22;15925;51.222;5.678;2024-03-23T10:09:03;8.20;99.90
28773;DHT22;15925;51.222;5.678;2024-03-23T10:11:41;8.30;99.90
28773;DHT22;15925;51.222;5.678;2024-03-23T10:14:09;8.20;99.90
28773;DHT22;15925;51.222;5.678;2024-03-23T10:16:35;8.30;99.90
28773;DHT22;15925;51.222;5.678;2024-03-23T10:19:00;8.40;99.90
28773;DHT22;15925;51.222;5.678;2024-03-23T10:21:26;8.60;99.90
28773;DHT22;15925;51.222;5.678;2024-03-23T10:23:51;8.70;99.90
28773;DHT22;15925;51.222;5.678;2024-03-23T10:26:21;8.80;99.90
28773;DHT22;15925;51.222;5.678;2024-03-23T10:31:17;9.00;99.90
28773;DHT22;15925;51.222;5.678;2024-03-23T10:33:48;9.10;99.90
28773;DHT22;15925;51.222;5.678;2024-03-23T10:36:15;9.30;99.90
28773;DHT22;15925;51.222;5.678;2024-03-23T10:38:41;9.50;99.90
28773;DHT22;15925;51.222;5.678;2024-03-23T10:41:10;9.40;99.90
28773;DHT22;15925;51.222;5.678;2024-03-23T10:43:36;9.20;99.90
28773;DHT22;15925;51.222;5.678;2024-03-23T10:46:02;8.60;99.90
28773;DHT22;15925;51.222;5.678;2024-03-23T10:48:27;8.40;99.90
28773;DHT22;15925;51.222;5.678;2024-03-23T10:50:53;8.30;99.90
28773;DHT22;15925;51.222;5.678;2024-03-23T10:53:20;8.20;99.90
28773;DHT22;15925;51.222;5.678;2024-03-23T10:55:47;8.20;99.90
28773;DHT22;15925;51.222;5.678;2024-03-23T10:58:12;8.10;99.90
28773;DHT22;15925;51.222;5.678;2024-03-23T11:00:38;7.90;99.90
28773;DHT22;15925;51.222;5.678;2024-03-23T11:03:38;7.80;99.90
28773;DHT22;15925;51.222;5.678;2024-03-23T11:05:56;7.80;99.90
28773;DHT22;15925;51.222;5.678;2024-03-23T11:13:41;8.40;99.90
28773;DHT22;15925;51.222;5.678;2024-03-23T11:16:14;8.40;99.90
28773;DHT22;15925;51.222;5.678;2024-03-23T11:18:39;8.30;99.90
28773;DHT22;15925;51.222;5.678;2024-03-23T11:21:06;8.30;99.90
28773;DHT22;15925;51.222;5.678;2024-03-23T11:23:53;8.00;99.90
28773;DHT22;15925;51.222;5.678;2024-03-23T11:26:59;7.90;99.90
28773;DHT22;15925;51.222;5.678;2024-03-23T11:29:27;7.90;99.90
28773;DHT22;15925;51.222;5.678;2024-03-23T11:31:52;7.90;99.90
28773;DHT22;15925;51.222;5.678;2024-03-23T11:34:19;7.90;99.90
28773;DHT22;15925;51.222;5.678;2024-03-23T11:36:44;8.10;99.90
28773;DHT22;15925;51.222;5.678;2024-03-23T11:39:14;8.00;99.90
28773;DHT22;15925;51.222;5.678;2024-03-23T11:42:00;8.20;99.90
28773;DHT22;15925;51.222;5.678;2024-03-23T11:44:25;8.30;99.90
28773;DHT22;15925;51.222;5.678;2024-03-23T11:46:51;8.50;99.90
28773;DHT22;15925;51.222;5.678;2024-03-23T11:49:27;8.80;99.90
28773;DHT22;15925;51.222;5.678;2024-03-23T11:51:54;9.00;99.90
28773;DHT22;15925;51.222;5.678;2024-03-23T11:54:20;9.20;99.90
28773;DHT22;15925;51.222;5.678;2024-03-23T11:56:59;9.20;99.90
28773;DHT22;15925;51.222;5.678;2024-03-23T11:59:31;9.00;99.90
28773;DHT22;15925;51.222;5.678;2024-03-23T12:01:57;8.80;99.90
28773;DHT22;15925;51.222;5.678;2024-03-23T12:04:26;7.60;99.90
28773;DHT22;15925;51.222;5.678;2024-03-23T12:07:08;7.30;99.90
28773;DHT22;15925;51.222;5.678;2024-03-23T12:09:34;7.40;99.90
28773;DHT22;15925;51.222;5.678;2024-03-23T12:12:05;7.70;99.90
28773;DHT22;15925;51.222;5.678;2024-03-23T12:14:30;7.80;99.90
28773;DHT22;15925;51.222;5.678;2024-03-23T12:17:06;8.00;99.90
28773;DHT22;15925;51.222;5.678;2024-03-23T12:19:32;8.10;99.90
28773;DHT22;15925;51.222;5.678;2024-03-23T12:21:57;8.30;99.90
28773;DHT22;15925;51.222;5.678;2024-03-23T12:24:23;8.50;99.90
28773;DHT22;15925;51.222;5.678;2024-03-23T12:26:50;8.60;99.90
28773;DHT22;15925;51.222;5.678;2024-03-23T12:29:15;8.80;99.90
28773;DHT22;15925;51.222;5.678;2024-03-23T12:31:41;8.80;99.90
28773;DHT22;15925;51.222;5.678;2024-03-23T12:34:06;8.90;99.90
28773;DHT22;15925;51.222;5.678;2024-03-23T12:36:34;8.70;99.90
28773;DHT22;15925;51.222;5.678;2024-03-23T12:39:00;8.70;99.90
28773;DHT22;15925;51.222;5.678;2024-03-23T12:41:26;8.70;99.90
28773;DHT22;15925;51.222;5.678;2024-03-23T12:43:51;8.60;99.90
28773;DHT22;15925;51.222;5.678;2024-03-23T12:46:17;8.50;99.90
28773;DHT22;15925;51.222;5.678;2024-03-23T12:48:44;8.50;99.90
28773;DHT22;15925;51.222;5.678;2024-03-23T12:51:10;8.50;99.90
28773;DHT22;15925;51.222;5.678;2024-03-23T12:53:35;8.50;99.90
28773;DHT22;15925;51.222;5.678;2024-03-23T12:56:01;8.70;99.90
28773;DHT22;15925;51.222;5.678;2024-03-23T12:58:27;8.80;99.90
28773;DHT22;15925;51.222;5.678;2024-03-23T13:00:52;8.80;99.90
28773;DHT22;15925;51.222;5.678;2024-03-23T13:03:18;8.50;99.90
28773;DHT22;15925;51.222;5.678;2024-03-23T13:05:43;8.50;99.90
28773;DHT22;15925;51.222;5.678;2024-03-23T13:08:09;8.20;99.90
28773;DHT22;15925;51.222;5.678;2024-03-23T13:10:34;8.00;99.90
28773;DHT22;15925;51.222;5.678;2024-03-23T13:13:00;7.60;99.90
28773;DHT22;15925;51.222;5.678;2024-03-23T13:15:26;7.50;99.90
28773;DHT22;15925;51.222;5.678;2024-03-23T13:17:52;7.30;99.90
28773;DHT22;15925;51.222;5.678;2024-03-23T13:20:19;7.30;99.90
28773;DHT22;15925;51.222;5.678;2024-03-23T13:22:45;7.30;99.90
28773;DHT22;15925;51.222;5.678;2024-03-23T13:25:12;7.40;99.90
28773;DHT22;15925;51.222;5.678;2024-03-23T13:27:38;7.30;99.90
28773;DHT22;15925;51.222;5.678;2024-03-23T13:30:04;7.40;99.90
28773;DHT22;15925;51.222;5.678;2024-03-23T13:32:29;7.20;99.90
28773;DHT22;15925;51.222;5.678;2024-03-23T13:34:55;7.30;99.90
28773;DHT22;15925;51.222;5.678;2024-03-23T13:37:21;7.50;99.90
28773;DHT22;15925;51.222;5.678;2024-03-23T13:39:46;7.20;99.90
28773;DHT22;15925;51.222;5.678;2024-03-23T13:42:13;7.10;99.90
28773;DHT22;15925;51.222;5.678;2024-03-23T13:44:38;6.90;99.90
28773;DHT22;15925;51.222;5.678;2024-03-23T13:47:04;7.10;99.90
28773;DHT22;15925;51.222;5.678;2024-03-23T13:49:30;7.00;99.90
28773;DHT22;15925;51.222;5.678;2024-03-23T13:51:57;7.20;99.90
28773;DHT22;15925;51.222;5.678;2024-03-23T13:54:27;7.10;99.90
28773;DHT22;15925;51.222;5.678;2024-03-23T13:56:53;7.20;99.90
28773;DHT22;15925;51.222;5.678;2024-03-23T13:59:19;7.30;99.90
28773;DHT22;15925;51.222;5.678;2024-03-23T14:01:46;7.40;99.90
28773;DHT22;15925;51.222;5.678;2024-03-23T14:04:12;7.40;99.90
28773;DHT22;15925;51.222;5.678;2024-03-23T14:06:38;7.30;99.90
28773;DHT22;15925;51.222;5.678;2024-03-23T14:09:03;7.40;99.90
28773;DHT22;15925;51.222;5.678;2024-03-23T14:11:29;7.50;99.90
28773;DHT22;15925;51.222;5.678;2024-03-23T14:13:55;7.70;99.90
28773;DHT22;15925;51.222;5.678;2024-03-23T14:16:20;7.70;99.90
28773;DHT22;15925;51.222;5.678;2024-03-23T14:18:46;7.60;99.90
28773;DHT22;15925;51.222;5.678;2024-03-23T14:21:12;7.50;99.90
28773;DHT22;15925;51.222;5.678;2024-03-23T14:23:38;7.50;99.90
28773;DHT22;15925;51.222;5.678;2024-03-23T14:26:06;7.50;99.90
28773;DHT22;15925;51.222;5.678;2024-03-23T14:28:31;7.30;99.90
28773;DHT22;15925;51.222;5.678;2024-03-23T14:30:57;7.20;99.90
28773;DHT22;15925;51.222;5.678;2024-03-23T14:33:23;7.10;99.90
28773;DHT22;15925;51.222;5.678;2024-03-23T14:35:56;7.10;99.90
28773;DHT22;15925;51.222;5.678;2024-03-23T14:38:22;7.00;99.90
28773;DHT22;15925;51.222;5.678;2024-03-23T14:40:48;7.00;99.90
28773;DHT22;15925;51.222;5.678;2024-03-23T14:43:14;6.80;99.90
28773;DHT22;15925;51.222;5.678;2024-03-23T14:48:27;6.60;99.90
28773;DHT22;15925;51.222;5.678;2024-03-23T14:50:56;6.50;99.90
28773;DHT22;15925;51.222;5.678;2024-03-23T14:53:22;6.30;99.90
28773;DHT22;15925;51.222;5.678;2024-03-23T14:55:47;6.30;99.90
28773;DHT22;15925;51.222;5.678;2024-03-23T14:58:14;6.30;99.90
28773;DHT22;15925;51.222;5.678;2024-03-23T15:00:40;6.30;99.90
28773;DHT22;15925;51.222;5.678;2024-03-23T15:03:06;6.40;99.90
28773;DHT22;15925;51.222;5.678;2024-03-23T15:05:31;6.60;99.90
28773;DHT22;15925;51.222;5.678;2024-03-23T15:07:57;6.70;99.90
28773;DHT22;15925;51.222;5.678;2024-03-23T15:10:23;6.80;99.90
28773;DHT22;15925;51.222;5.678;2024-03-23T15:12:49;6.90;99.90
28773;DHT22;15925;51.222;5.678;2024-03-23T15:15:14;7.00;99.90
28773;DHT22;15925;51.222;5.678;2024-03-23T15:17:40;7.10;99.90
28773;DHT22;15925;51.222;5.678;2024-03-23T15:20:10;7.20;99.90
28773;DHT22;15925;51.222;5.678;2024-03-23T15:22:37;7.40;99.90
28773;DHT22;15925;51.222;5.678;2024-03-23T15:25:02;7.50;99.90
28773;DHT22;15925;51.222;5.678;2024-03-23T15:27:28;7.70;99.90
28773;DHT22;15925;51.222;5.678;2024-03-23T15:29:55;7.70;99.90
28773;DHT22;15925;51.222;5.678;2024-03-23T15:32:22;7.80;99.90
28773;DHT22;15925;51.222;5.678;2024-03-23T15:34:47;7.80;99.90
28773;DHT22;15925;51.222;5.678;2024-03-23T15:37:13;7.90;99.90
28773;DHT22;15925;51.222;5.678;2024-03-23T15:39:39;8.00;99.90
28773;DHT22;15925;51.222;5.678;2024-03-23T15:42:06;8.00;99.90
28773;DHT22;15925;51.222;5.678;2024-03-23T15:44:32;8.00;99.90
28773;DHT22;15925;51.222;5.678;2024-03-23T15:46:58;8.10;99.90
28773;DHT22;15925;51.222;5.678;2024-03-23T15:49:23;8.20;99.90
28773;DHT22;15925;51.222;5.678;2024-03-23T15:51:49;8.20;99.90
28773;DHT22;15925;51.222;5.678;2024-03-23T15:54:14;8.30;99.90
28773;DHT22;15925;51.222;5.678;2024-03-23T15:56:40;8.40;99.90
28773;DHT22;15925;51.222;5.678;2024-03-23T15:59:06;8.40;99.90
28773;DHT22;15925;51.222;5.678;2024-03-23T16:01:32;8.30;99.90
28773;DHT22;15925;51.222;5.678;2024-03-23T16:03:59;8.20;99.90
28773;DHT22;15925;51.222;5.678;2024-03-23T16:06:25;8.20;99.90
28773;DHT22;15925;51.222;5.678;2024-03-23T16:08:51;8.20;99.90
28773;DHT22;15925;51.222;5.678;2024-03-23T16:11:17;8.10;99.90
28773;DHT22;15925;51.222;5.678;2024-03-23T16:13:43;8.00;99.90
28773;DHT22;15925;51.222;5.678;2024-03-23T16:16:09;7.90;99.90
28773;DHT22;15925;51.222;5.678;2024-03-23T16:18:38;7.90;99.90
28773;DHT22;15925;51.222;5.678;2024-03-23T16:21:06;7.90;99.90
28773;DHT22;15925;51.222;5.678;2024-03-23T16:23:32;7.80;99.90
28773;DHT22;15925;51.222;5.678;2024-03-23T16:25:58;7.50;99.90
28773;DHT22;15925;51.222;5.678;2024-03-23T16:28:36;7.30;99.90
28773;DHT22;15925;51.222;5.678;2024-03-23T16:33:29;7.40;99.90
28773;DHT22;15925;51.222;5.678;2024-03-23T16:35:57;7.30;99.90
28773;DHT22;15925;51.222;5.678;2024-03-23T16:38:22;7.30;99.90
28773;DHT22;15925;51.222;5.678;2024-03-23T16:40:55;7.20;99.90
28773;DHT22;15925;51.222;5.678;2024-03-23T16:43:20;7.20;99.90
28773;DHT22;15925;51.222;5.678;2024-03-23T16:45:56;7.10;99.90
28773;DHT22;15925;51.222;5.678;2024-03-23T16:48:22;7.20;99.90
28773;DHT22;15925;51.222;5.678;2024-03-23T16:50:48;7.20;99.90